createdAt,value
2023-02-19T00:01:45.532Z,87.82
2023-02-19T00:06:48.528Z,88.13
2023-02-19T00:11:54.757Z,88.20
2023-02-19T00:16:59.492Z,88.29
2023-02-19T00:22:01.151Z,88.07
2023-02-19T00:27:03.011Z,88.44
2023-02-19T00:32:05.221Z,88.83
2023-02-19T00:37:08.455Z,88.95
2023-02-19T00:42:10.106Z,88.63
2023-02-19T00:47:11.913Z,88.73
2023-02-19T00:52:14.372Z,88.58
2023-02-19T00:57:16.273Z,89.13
2023-02-19T01:02:17.987Z,88.94
2023-02-19T01:07:19.749Z,89.05
2023-02-19T01:12:21.505Z,89.12
2023-02-19T01:17:23.353Z,89.69
2023-02-19T01:22:25.076Z,89.87
2023-02-19T01:27:26.934Z,89.92
2023-02-19T01:32:28.689Z,90.01
2023-02-19T01:37:30.518Z,90.22
2023-02-19T01:42:32.246Z,90.43
2023-02-19T01:47:34.147Z,90.77
2023-02-19T01:52:37.009Z,90.52
2023-02-19T01:57:43.633Z,90.59
2023-02-19T02:02:51.100Z,90.53
2023-02-19T02:08:11.670Z,90.43
2023-02-19T02:13:13.433Z,90.49
2023-02-19T02:18:41.594Z,90.21
2023-02-19T02:24:06.688Z,90.02
2023-02-19T02:29:29.834Z,90.29
2023-02-19T02:34:42.584Z,90.51
2023-02-19T02:39:46.927Z,90.61
2023-02-19T02:45:07.303Z,90.63
2023-02-19T02:50:25.086Z,90.88
2023-02-19T02:55:31.838Z,90.50
2023-02-19T03:00:54.876Z,90.24
2023-02-19T03:06:05.073Z,90.31
2023-02-19T03:11:31.123Z,90.32
2023-02-19T03:16:56.459Z,90.02
2023-02-19T03:22:10.251Z,90.38
2023-02-19T03:27:14.490Z,90.35
2023-02-19T03:32:39.291Z,90.09
2023-02-19T03:37:47.072Z,90.35
2023-02-19T03:43:10.031Z,90.13
2023-02-19T03:48:19.668Z,90.04
2023-02-19T03:53:54.691Z,89.98
2023-02-19T03:59:11.249Z,90.13
2023-02-19T04:04:13.185Z,89.96
2023-02-19T04:09:17.458Z,90.29
2023-02-19T04:14:28.918Z,90.03
2023-02-19T04:19:34.329Z,90.16
2023-02-19T04:24:43.229Z,90.40
2023-02-19T04:29:45.105Z,90.46
2023-02-19T04:34:46.851Z,90.37
2023-02-19T04:39:48.567Z,90.29
2023-02-19T04:44:50.374Z,90.33
2023-02-19T04:49:52.357Z,90.12
2023-02-19T04:54:54.133Z,90.27
2023-02-19T04:59:55.802Z,90.32
2023-02-19T05:04:57.537Z,90.32
2023-02-19T05:09:59.860Z,90.52
2023-02-19T05:15:01.584Z,90.38
2023-02-19T05:20:04.073Z,89.97
2023-02-19T05:25:06.127Z,90.11
2023-02-19T05:30:08.602Z,90.47
2023-02-19T05:35:10.307Z,90.05
2023-02-19T05:40:12.028Z,89.68
2023-02-19T05:45:13.729Z,90.16
2023-02-19T05:50:15.523Z,89.83
2023-02-19T05:55:17.374Z,89.95
2023-02-19T06:00:19.942Z,89.93
2023-02-19T06:05:21.753Z,89.89
2023-02-19T06:10:23.572Z,90.44
2023-02-19T06:15:25.280Z,90.82
2023-02-19T06:20:27.358Z,90.60
2023-02-19T06:25:29.149Z,89.89
2023-02-19T06:30:30.892Z,89.56
2023-02-19T06:35:32.812Z,89.80
2023-02-19T06:40:34.475Z,89.69
2023-02-19T06:45:36.133Z,90.08
2023-02-19T06:50:38.123Z,89.75
2023-02-19T06:55:40.451Z,89.49
2023-02-19T07:00:42.161Z,90.01
2023-02-19T07:05:43.936Z,89.77
2023-02-19T07:10:45.961Z,89.57
2023-02-19T07:15:48.900Z,89.73
2023-02-19T07:20:51.968Z,89.89
2023-02-19T07:25:53.805Z,89.89
2023-02-19T07:31:01.816Z,89.64
2023-02-19T07:36:03.761Z,89.75
2023-02-19T07:41:06.892Z,89.85
2023-02-19T07:46:11.986Z,89.88
2023-02-19T07:51:18.802Z,90.06
2023-02-19T07:56:20.989Z,89.82
2023-02-19T08:01:42.580Z,89.24
2023-02-19T08:06:44.336Z,88.94
2023-02-19T08:12:04.715Z,89.37
2023-02-19T08:17:06.395Z,89.16
2023-02-19T08:22:08.293Z,89.23
2023-02-19T08:27:10.211Z,89.05
2023-02-19T08:32:12.277Z,88.67
2023-02-19T08:37:14.064Z,88.33
2023-02-19T08:42:15.711Z,88.42
2023-02-19T08:47:17.387Z,88.68
2023-02-19T08:52:19.067Z,88.71
2023-02-19T08:57:20.776Z,88.60
2023-02-19T09:02:23.536Z,88.45
2023-02-19T09:07:25.256Z,88.41
2023-02-19T09:12:27.282Z,88.90
2023-02-19T09:17:28.951Z,88.66
2023-02-19T09:22:30.678Z,88.00
2023-02-19T09:27:33.245Z,87.71
2023-02-19T09:32:34.909Z,86.44
2023-02-19T09:37:36.568Z,85.15
2023-02-19T09:42:42.252Z,85.19
2023-02-19T09:47:43.962Z,85.89
2023-02-19T09:52:53.679Z,86.33
2023-02-19T09:57:57.997Z,86.61
2023-02-19T10:03:05.997Z,86.22
2023-02-19T10:08:14.871Z,86.55
2023-02-19T10:13:42.843Z,86.68
2023-02-19T10:18:46.614Z,86.25
2023-02-19T10:23:53.703Z,86.97
2023-02-19T10:28:55.644Z,86.41
2023-02-19T10:34:00.353Z,86.09
2023-02-19T10:39:22.751Z,86.13
2023-02-19T10:44:28.076Z,85.54
2023-02-19T10:49:34.154Z,86.09
2023-02-19T10:54:36.239Z,85.10
2023-02-19T10:59:37.966Z,86.33
2023-02-19T11:04:39.628Z,86.36
2023-02-19T11:09:49.413Z,85.44
2023-02-19T11:14:51.489Z,84.62
2023-02-19T11:20:17.773Z,83.85
2023-02-19T11:25:25.577Z,83.33
2023-02-19T11:30:30.323Z,82.80
2023-02-19T11:35:32.160Z,82.15
2023-02-19T11:40:46.114Z,82.36
2023-02-19T11:46:18.724Z,82.75
2023-02-19T11:51:30.327Z,82.59
2023-02-19T11:56:37.195Z,81.34
2023-02-19T12:02:03.907Z,81.05
2023-02-19T12:07:30.550Z,82.00
2023-02-19T12:12:32.284Z,82.19
2023-02-19T12:17:59.034Z,81.85
2023-02-19T12:23:24.635Z,80.81
2023-02-19T12:28:49.029Z,82.26
2023-02-19T12:34:10.410Z,82.54
2023-02-19T12:39:49.689Z,82.82
2023-02-19T12:44:56.305Z,81.95
2023-02-19T12:50:13.481Z,81.31
2023-02-19T12:55:26.223Z,81.89
2023-02-19T13:00:51.717Z,81.20
2023-02-19T13:06:07.128Z,81.16
2023-02-19T13:11:36.792Z,81.12
2023-02-19T13:16:42.433Z,79.64
2023-02-19T13:22:10.111Z,77.70
2023-02-19T13:27:36.219Z,77.36
2023-02-19T13:32:59.900Z,77.09
2023-02-19T13:38:03.795Z,77.49
2023-02-19T13:43:22.384Z,78.02
2023-02-19T13:48:24.149Z,78.32
2023-02-19T13:53:50.428Z,78.97
2023-02-19T13:58:54.501Z,80.37
2023-02-19T14:04:23.519Z,81.38
2023-02-19T14:09:34.160Z,82.45
2023-02-19T14:14:44.201Z,82.24
2023-02-19T14:19:50.043Z,81.53
2023-02-19T14:24:54.233Z,81.65
2023-02-19T14:29:56.460Z,78.65
2023-02-19T14:34:58.751Z,79.06
2023-02-19T14:40:01.249Z,78.14
2023-02-19T14:45:07.153Z,76.64
2023-02-19T14:50:20.360Z,75.75
2023-02-19T14:55:30.291Z,76.35
2023-02-19T15:00:37.763Z,76.64
2023-02-19T15:05:39.823Z,77.28
2023-02-19T15:10:43.384Z,77.62
2023-02-19T15:15:46.294Z,77.64
2023-02-19T15:20:49.147Z,77.37
2023-02-19T15:25:52.814Z,77.55
2023-02-19T15:30:57.224Z,76.10
2023-02-19T15:36:03.261Z,75.75
2023-02-19T15:41:05.281Z,75.34
2023-02-19T15:46:27.957Z,74.29
2023-02-19T15:51:43.444Z,73.93
2023-02-19T15:56:50.046Z,73.19
2023-02-19T16:01:52.345Z,73.25
2023-02-19T16:06:59.926Z,72.68
2023-02-19T16:12:03.229Z,72.70
2023-02-19T16:17:12.040Z,72.96
2023-02-19T16:22:18.758Z,74.09
2023-02-19T16:27:40.065Z,74.45
2023-02-19T16:32:42.000Z,74.26
2023-02-19T16:37:59.926Z,74.16
2023-02-19T16:43:26.342Z,74.51
2023-02-19T16:48:28.188Z,74.32
2023-02-19T16:53:29.920Z,74.44
2023-02-19T16:58:31.579Z,74.06
2023-02-19T17:03:33.317Z,75.37
2023-02-19T17:08:37.703Z,75.59
2023-02-19T17:13:40.767Z,76.12
2023-02-19T17:18:42.741Z,76.41
2023-02-19T17:23:44.525Z,76.57
2023-02-19T17:28:46.309Z,76.43
2023-02-19T17:33:48.227Z,76.83
2023-02-19T17:38:50.569Z,77.11
2023-02-19T17:43:52.547Z,77.23
2023-02-19T17:48:54.900Z,77.33
2023-02-19T17:53:57.431Z,77.36
2023-02-19T17:58:59.761Z,77.50
2023-02-19T18:04:01.497Z,77.81
2023-02-19T18:09:03.510Z,78.27
2023-02-19T18:14:05.465Z,78.48
2023-02-19T18:19:07.584Z,78.72
2023-02-19T18:24:10.984Z,78.65
2023-02-19T18:29:12.876Z,79.33
2023-02-19T18:34:18.678Z,79.40
2023-02-19T18:39:20.652Z,79.49
2023-02-19T18:44:24.046Z,79.83
2023-02-19T18:49:25.822Z,79.83
2023-02-19T18:54:28.977Z,80.48
2023-02-19T18:59:32.212Z,80.39
2023-02-19T19:04:43.364Z,80.90
2023-02-19T19:09:47.663Z,81.23
2023-02-19T19:14:49.518Z,81.31
2023-02-19T19:19:51.174Z,81.55
2023-02-19T19:24:53.241Z,81.94
2023-02-19T19:29:55.082Z,81.84
2023-02-19T19:34:57.780Z,82.18
2023-02-19T19:39:59.673Z,82.15
2023-02-19T19:45:01.545Z,81.99
2023-02-19T19:50:03.678Z,82.23
2023-02-19T19:55:06.429Z,82.27
2023-02-19T20:00:09.479Z,82.68
2023-02-19T20:05:18.075Z,82.52
2023-02-19T20:10:20.651Z,82.47
2023-02-19T20:15:23.055Z,82.02
2023-02-19T20:20:24.870Z,81.78
2023-02-19T20:25:27.002Z,81.67
2023-02-19T20:30:28.832Z,80.93
2023-02-19T20:35:30.582Z,80.91
2023-02-19T20:40:32.772Z,80.90
2023-02-19T20:45:34.497Z,80.30
2023-02-19T20:50:36.212Z,80.39
2023-02-19T20:55:38.121Z,80.27
2023-02-19T21:00:40.132Z,79.63
2023-02-19T21:05:43.094Z,79.94
2023-02-19T21:10:46.127Z,80.12
2023-02-19T21:15:47.839Z,80.19
2023-02-19T21:20:49.614Z,80.29
2023-02-19T21:25:54.226Z,80.28
2023-02-19T21:30:56.357Z,80.43
2023-02-19T21:35:58.090Z,80.36
2023-02-19T21:40:59.814Z,80.62
2023-02-19T21:46:01.589Z,80.84
2023-02-19T21:51:03.881Z,80.86
2023-02-19T21:56:05.795Z,80.87
2023-02-19T22:01:07.499Z,81.08
2023-02-19T22:06:09.607Z,81.19
2023-02-19T22:11:11.654Z,81.00
2023-02-19T22:16:14.252Z,81.33
2023-02-19T22:21:16.684Z,81.30
2023-02-19T22:26:28.176Z,81.61
2023-02-19T22:31:32.876Z,81.61
2023-02-19T22:36:38.907Z,81.98
2023-02-19T22:41:43.952Z,81.96
2023-02-19T22:46:53.513Z,82.05
2023-02-19T22:52:00.534Z,82.01
2023-02-19T22:57:02.329Z,82.11
2023-02-19T23:02:04.003Z,82.42
2023-02-19T23:07:06.688Z,82.55
2023-02-19T23:12:11.180Z,82.75
2023-02-19T23:17:12.946Z,82.88
2023-02-19T23:22:14.578Z,82.99
2023-02-19T23:27:16.446Z,83.00
2023-02-19T23:32:20.938Z,83.07
2023-02-19T23:37:22.634Z,83.05
2023-02-19T23:42:24.360Z,83.02
2023-02-19T23:47:26.590Z,83.06
2023-02-19T23:52:28.236Z,82.71
2023-02-19T23:57:29.963Z,82.60
